Time;durP1;ratioP1;P1;durP2;ratioP2;P2;SDS_P1;SDS_P2;PMS_P1;PMS_P2;Temp;Humidity;BMP_temperature;BMP_pressure;BME280_temperature;BME280_humidity;BME280_pressure;Samples;Min_cycle;Max_cycle;Signal;HPM_P1;HPM_P2
2021/09/01 00:00:35;;;;;;;6.97;4.75;;;;;;;13.36;93.46;93269.69;5068383;28;20512;-80
2021/09/01 00:03:03;;;;;;;8.52;4.70;;;;;;;13.18;93.91;93265.41;5071587;28;20052;-79
2021/09/01 00:05:30;;;;;;;6.70;5.38;;;;;;;13.14;94.23;93263.53;5071819;28;20051;-79
2021/09/01 00:07:57;;;;;;;8.88;5.30;;;;;;;13.20;94.12;93281.44;5072028;28;20056;-79
2021/09/01 00:10:24;;;;;;;6.40;4.90;;;;;;;13.14;95.08;93279.75;5071805;28;20444;-79
2021/09/01 00:12:51;;;;;;;8.35;5.03;;;;;;;13.01;95.62;93278.19;5072359;28;20078;-80
2021/09/01 00:15:18;;;;;;;6.15;4.88;;;;;;;13.06;95.96;93288.63;5072355;28;20055;-81
2021/09/01 00:17:44;;;;;;;9.10;5.20;;;;;;;13.06;96.11;93296.34;5071888;28;20051;-80
2021/09/01 00:20:13;;;;;;;6.80;5.05;;;;;;;13.02;96.31;93291.88;5072241;28;20406;-80
2021/09/01 00:22:40;;;;;;;7.10;5.38;;;;;;;13.01;96.70;93301.38;5072141;28;20052;-80
2021/09/01 00:25:09;;;;;;;8.32;5.38;;;;;;;12.61;96.98;93240.94;5071734;28;20048;-80
2021/09/01 00:27:36;;;;;;;6.88;5.22;;;;;;;13.10;96.42;93301.84;5071788;28;20071;-81
2021/09/01 00:30:03;;;;;;;10.82;4.85;;;;;;;13.10;95.90;93302.63;5071635;28;20059;-81
2021/09/01 00:32:30;;;;;;;8.75;5.35;;;;;;;12.98;96.47;93290.72;5071574;28;20059;-81
2021/09/01 00:34:57;;;;;;;8.18;5.03;;;;;;;13.02;96.79;93302.97;5071693;28;20052;-81
2021/09/01 00:37:25;;;;;;;7.63;5.10;;;;;;;12.87;97.15;93282.75;5071726;28;20049;-81
2021/09/01 00:39:52;;;;;;;6.55;5.38;;;;;;;12.87;96.77;93282.75;5071379;28;20431;-81
2021/09/01 00:42:19;;;;;;;8.45;5.30;;;;;;;13.13;95.89;93314.31;5071747;28;20091;-80
2021/09/01 00:44:47;;;;;;;7.10;4.97;;;;;;;12.96;95.47;93288.38;5071028;28;20044;-82
2021/09/01 00:47:16;;;;;;;6.90;5.18;;;;;;;13.10;95.07;93323.28;5070779;28;20596;-80
2021/09/01 00:49:43;;;;;;;7.18;5.38;;;;;;;13.09;95.07;93328.66;5071015;28;20461;-80
2021/09/01 00:52:12;;;;;;;7.13;4.80;;;;;;;13.13;94.81;93334.94;5070786;28;20497;-80
2021/09/01 00:54:41;;;;;;;7.57;4.57;;;;;;;13.14;94.97;93328.00;5070859;28;20387;-80
2021/09/01 00:57:09;;;;;;;8.70;5.07;;;;;;;13.13;94.25;93323.81;5070605;28;20091;-79
2021/09/01 00:59:40;;;;;;;6.97;4.60;;;;;;;13.09;94.71;93329.44;5070405;28;20497;-79
2021/09/01 01:02:07;;;;;;;8.32;5.03;;;;;;;13.06;94.48;93313.63;5070568;28;20466;-79
2021/09/01 01:04:35;;;;;;;6.70;4.60;;;;;;;13.13;93.65;93327.19;5070639;28;20044;-79
2021/09/01 01:07:04;;;;;;;6.32;4.70;;;;;;;12.88;94.22;93302.41;5070694;28;20060;-79
2021/09/01 01:09:31;;;;;;;6.63;4.85;;;;;;;12.97;94.45;93305.44;5070443;28;20563;-79
2021/09/01 01:12:07;;;;;;;7.25;5.00;;;;;;;13.07;94.05;93318.56;5070742;28;20469;-79
2021/09/01 01:14:39;;;;;;;6.53;4.75;;;;;;;13.14;94.16;93325.41;5070407;28;20044;-79
2021/09/01 01:17:07;;;;;;;5.88;4.60;;;;;;;13.12;94.04;93317.09;5070390;28;20056;-79
2021/09/01 01:19:35;;;;;;;6.47;4.25;;;;;;;13.15;93.72;93324.41;5070816;28;20053;-79
2021/09/01 01:22:01;;;;;;;7.60;5.15;;;;;;;13.15;93.78;93324.41;5071000;28;20106;-79
2021/09/01 01:24:47;;;;;;;6.40;4.75;;;;;;;13.12;93.76;93324.84;5069853;28;20048;-79
2021/09/01 01:27:28;;;;;;;;;;;;;;;13.09;94.28;93323.47;5065341;28;20049;-80
2021/09/01 01:29:56;;;;;;;5.20;4.55;;;;;;;12.86;94.14;93291.50;5058384;28;19927;-80
2021/09/01 01:32:23;;;;;;;5.90;4.78;;;;;;;13.06;94.64;93318.78;5068666;28;20094;-80
2021/09/01 01:34:50;;;;;;;5.85;4.78;;;;;;;13.07;94.15;93313.41;5069243;28;20094;-80
2021/09/01 01:37:17;;;;;;;6.07;4.90;;;;;;;12.99;94.53;93310.34;5069539;28;20045;-80
2021/09/01 01:39:44;;;;;;;6.85;4.78;;;;;;;13.03;94.70;93322.59;5069430;28;20048;-80
2021/09/01 01:42:11;;;;;;;6.60;5.10;;;;;;;13.07;94.46;93310.03;5066815;28;20047;-83
2021/09/01 01:44:39;;;;;;;9.27;5.25;;;;;;;13.04;94.65;93311.25;5069779;28;20056;-79
2021/09/01 01:47:06;;;;;;;8.35;4.97;;;;;;;13.02;94.64;93307.34;5069987;28;20056;-80
2021/09/01 01:49:33;;;;;;;8.50;5.60;;;;;;;13.09;94.38;93311.38;5069969;28;20064;-81
2021/09/01 01:52:00;;;;;;;7.97;5.65;;;;;;;13.08;93.77;93306.44;5069679;28;20493;-80
2021/09/01 01:54:27;;;;;;;6.95;5.43;;;;;;;13.01;94.72;93303.19;5069735;28;20135;-81
2021/09/01 01:56:54;;;;;;;7.78;6.47;;;;;;;13.04;94.48;93305.31;5069625;28;20058;-80
2021/09/01 01:59:21;;;;;;;9.80;6.53;;;;;;;13.05;94.59;93305.09;5069828;28;20102;-80
2021/09/01 02:01:49;;;;;;;9.30;5.90;;;;;;;13.08;94.47;93309.81;5069747;28;20129;-80
2021/09/01 02:04:16;;;;;;;9.27;5.82;;;;;;;13.07;94.12;93302.31;5069436;28;20049;-80
2021/09/01 02:06:43;;;;;;;8.63;6.18;;;;;;;12.98;94.52;93288.94;5069521;28;20056;-80
2021/09/01 02:09:10;;;;;;;9.43;5.85;;;;;;;12.99;94.75;93289.72;5069365;28;20080;-80
2021/09/01 02:11:37;;;;;;;9.23;6.45;;;;;;;12.99;95.03;93290.50;5069823;28;20489;-80
2021/09/01 02:14:04;;;;;;;10.95;7.32;;;;;;;13.01;95.04;93290.31;5070161;28;20098;-79
2021/09/01 02:16:31;;;;;;;8.27;6.35;;;;;;;12.93;95.04;93281.09;5070073;28;20072;-79
2021/09/01 02:18:59;;;;;;;9.07;6.82;;;;;;;12.95;95.22;93292.75;5070289;28;20049;-80
2021/09/01 02:21:26;;;;;;;10.80;6.25;;;;;;;12.94;94.91;93292.97;5070071;28;20099;-81
2021/09/01 02:23:52;;;;;;;11.50;6.13;;;;;;;12.88;95.43;93294.66;5069154;28;20583;-81
2021/09/01 02:26:19;;;;;;;11.35;7.05;;;;;;;12.74;96.46;93291.50;5069720;28;20101;-81
2021/09/01 02:28:46;;;;;;;9.52;6.55;;;;;;;12.76;96.19;93289.47;5069999;28;20049;-81
2021/09/01 02:31:13;;;;;;;11.73;6.90;;;;;;;12.69;96.24;93299.09;5069772;28;20056;-81
2021/09/01 02:33:40;;;;;;;11.18;6.15;;;;;;;12.59;96.82;93291.88;5069715;28;20087;-80
2021/09/01 02:36:08;;;;;;;12.23;6.80;;;;;;;12.54;97.09;93297.69;5069222;28;20044;-80
2021/09/01 02:38:35;;;;;;;12.00;6.60;;;;;;;12.40;97.30;93284.22;5069070;28;20059;-79
2021/09/01 02:41:02;;;;;;;9.73;6.07;;;;;;;12.43;98.36;93296.66;5069588;28;20060;-80
2021/09/01 02:43:29;;;;;;;8.85;6.18;;;;;;;12.42;97.89;93289.91;5069358;28;20052;-80
2021/09/01 02:45:55;;;;;;;13.05;6.57;;;;;;;12.43;98.01;93295.88;5069008;28;20105;-79
2021/09/01 02:48:22;;;;;;;11.02;6.97;;;;;;;12.39;98.32;93300.69;5068907;28;20485;-79
2021/09/01 02:50:49;;;;;;;9.90;6.88;;;;;;;12.35;98.63;93314.22;5069264;28;20044;-79
2021/09/01 02:53:17;;;;;;;9.93;6.13;;;;;;;12.06;98.06;93258.09;5069045;28;20052;-80
2021/09/01 02:55:44;;;;;;;8.98;6.32;;;;;;;12.31;98.88;93308.69;5068893;28;20056;-80
2021/09/01 02:58:11;;;;;;;11.35;6.93;;;;;;;12.01;98.80;93273.38;5069100;28;20048;-80
2021/09/01 03:00:38;;;;;;;8.02;5.60;;;;;;;12.25;98.02;93297.47;5068851;28;20052;-80
2021/09/01 03:03:05;;;;;;;9.93;6.28;;;;;;;12.28;97.98;93314.28;5069056;28;20106;-79
2021/09/01 03:05:33;;;;;;;9.77;5.88;;;;;;;12.09;98.44;93291.13;5068745;28;20044;-79
2021/09/01 03:07:59;;;;;;;9.02;5.50;;;;;;;12.28;97.88;93319.44;5068841;28;20055;-79
2021/09/01 03:10:28;;;;;;;9.85;5.45;;;;;;;12.27;97.84;93316.06;5069095;28;20055;-79
2021/09/01 03:12:54;;;;;;;6.53;5.47;;;;;;;12.30;98.16;93320.00;5068635;28;20051;-79
2021/09/01 03:15:21;;;;;;;6.85;4.70;;;;;;;12.31;97.71;93324.16;5068980;28;20053;-79
2021/09/01 03:17:48;;;;;;;9.73;4.85;;;;;;;12.20;98.74;93301.69;5068542;28;20048;-81
2021/09/01 03:20:15;;;;;;;8.55;4.85;;;;;;;12.11;98.69;93306.38;5068408;28;20090;-79
2021/09/01 03:22:42;;;;;;;6.78;4.97;;;;;;;12.16;99.36;93327.91;5068911;28;20113;-79
2021/09/01 03:25:10;;;;;;;6.38;5.13;;;;;;;12.09;99.76;93319.44;5068922;28;20094;-79
2021/09/01 03:27:38;;;;;;;14.98;5.40;;;;;;;12.05;99.73;93318.31;5068841;28;20395;-79
2021/09/01 03:30:06;;;;;;;9.65;5.47;;;;;;;11.97;100.00;93316.00;5068790;28;20041;-80
2021/09/01 03:32:33;;;;;;;7.75;5.05;;;;;;;11.85;100.00;93306.41;5068343;28;20048;-79
2021/09/01 03:35:00;;;;;;;6.28;5.40;;;;;;;11.95;100.00;93329.06;5068460;28;20051;-79
2021/09/01 03:37:27;;;;;;;9.13;4.88;;;;;;;11.88;100.00;93330.94;5071975;28;20405;-80
2021/09/01 03:39:53;;;;;;;8.90;5.75;;;;;;;11.96;100.00;93335.03;5072294;28;20059;-80
2021/09/01 03:42:20;;;;;;;10.45;5.28;;;;;;;11.92;100.00;93339.81;5072750;28;20401;-80
2021/09/01 03:44:49;;;;;;;9.32;6.03;;;;;;;11.66;100.00;93317.72;5072217;28;20055;-80
2021/09/01 03:47:16;;;;;;;10.05;5.18;;;;;;;11.80;100.00;93337.16;5072228;28;20455;-79
2021/09/01 03:49:42;;;;;;;15.50;5.78;;;;;;;11.86;100.00;93341.44;5072014;28;20493;-80
2021/09/01 03:52:09;;;;;;;8.10;6.53;;;;;;;11.61;100.00;93337.16;5072361;28;20049;-80
2021/09/01 03:54:36;;;;;;;10.13;6.10;;;;;;;11.67;100.00;93324.44;5072170;28;20045;-80
2021/09/01 03:57:03;;;;;;;11.95;6.60;;;;;;;11.71;100.00;93331.50;5072082;28;20488;-80
2021/09/01 03:59:30;;;;;;;9.77;6.30;;;;;;;11.82;100.00;93344.66;5072037;28;20053;-80
2021/09/01 04:01:59;;;;;;;10.43;6.00;;;;;;;11.86;100.00;93348.41;5071939;28;20048;-80
2021/09/01 04:04:25;;;;;;;8.60;5.45;;;;;;;11.90;100.00;93347.75;5072087;28;20051;-80
2021/09/01 04:06:54;;;;;;;10.50;5.70;;;;;;;11.84;100.00;93346.03;5071713;28;20653;-80
2021/09/01 04:09:21;;;;;;;6.43;5.32;;;;;;;11.86;100.00;93336.31;5071617;28;20493;-80
2021/09/01 04:11:48;;;;;;;13.52;7.05;;;;;;;11.92;100.00;93347.53;5072019;28;20105;-79
2021/09/01 04:14:15;;;;;;;9.77;6.20;;;;;;;11.97;100.00;93336.59;5071799;28;20048;-79
2021/09/01 04:16:42;;;;;;;10.88;6.05;;;;;;;11.90;100.00;93340.03;5071779;28;20050;-81
2021/09/01 04:19:10;;;;;;;9.90;5.50;;;;;;;11.97;100.00;93342.53;5071675;28;20052;-80
2021/09/01 04:21:37;;;;;;;9.90;5.07;;;;;;;11.92;100.00;93342.38;5071505;28;20056;-80
2021/09/01 04:24:04;;;;;;;12.00;5.97;;;;;;;12.02;100.00;93352.97;5071451;28;20051;-79
2021/09/01 04:26:31;;;;;;;7.38;4.95;;;;;;;11.88;100.00;93338.66;5071687;28;20484;-79
2021/09/01 04:28:58;;;;;;;8.65;5.95;;;;;;;11.99;100.00;93350.06;5071311;28;20048;-79
2021/09/01 04:31:24;;;;;;;14.32;6.40;;;;;;;12.02;100.00;93354.75;5071331;28;20055;-79
2021/09/01 04:33:51;;;;;;;9.60;5.68;;;;;;;11.99;100.00;93345.66;5071380;28;20497;-79
2021/09/01 04:36:20;;;;;;;12.38;5.95;;;;;;;12.10;100.00;93346.00;5071530;28;20048;-79
2021/09/01 04:38:46;;;;;;;14.80;6.30;;;;;;;12.13;100.00;93355.88;5071228;28;20052;-80
2021/09/01 04:41:13;;;;;;;14.82;6.35;;;;;;;12.21;100.00;93358.16;5071470;28;20059;-80
2021/09/01 04:43:40;;;;;;;10.45;6.10;;;;;;;12.27;100.00;93353.94;5071183;28;20044;-80
2021/09/01 04:46:07;;;;;;;9.18;5.43;;;;;;;12.35;100.00;93350.28;5070971;28;20405;-79
2021/09/01 04:48:34;;;;;;;11.48;5.72;;;;;;;12.33;100.00;93337.63;5070944;28;20048;-80
2021/09/01 04:51:00;;;;;;;8.10;5.25;;;;;;;12.52;100.00;93356.41;5071310;28;20867;-79
2021/09/01 04:53:29;;;;;;;12.90;4.68;;;;;;;12.49;100.00;93340.59;5070910;28;20052;-80
2021/09/01 04:55:56;;;;;;;6.45;4.90;;;;;;;12.69;99.71;93358.38;5070683;28;20090;-80
2021/09/01 04:58:22;;;;;;;10.07;5.05;;;;;;;12.74;100.00;93358.50;5070890;28;20048;-80
2021/09/01 05:00:49;;;;;;;10.13;5.50;;;;;;;12.80;99.42;93360.19;5071151;28;20412;-80
2021/09/01 05:03:16;;;;;;;11.02;5.85;;;;;;;12.88;99.54;93361.69;5070470;28;20048;-80
2021/09/01 05:05:43;;;;;;;12.38;6.00;;;;;;;12.86;100.00;93353.38;5070735;28;20045;-80
2021/09/01 05:08:10;;;;;;;11.30;6.15;;;;;;;13.04;99.45;93367.19;5070912;28;20181;-80
2021/09/01 05:10:38;;;;;;;10.43;5.78;;;;;;;13.09;99.75;93368.13;5070453;28;20046;-80
2021/09/01 05:13:05;;;;;;;7.80;4.55;;;;;;;13.20;98.34;93370.94;5066796;28;20056;-80
2021/09/01 05:15:31;;;;;;;8.02;4.65;;;;;;;13.27;97.84;93369.06;5068730;28;20051;-80
2021/09/01 05:17:58;;;;;;;8.43;5.85;;;;;;;13.27;97.99;93363.09;5070540;28;20044;-79
2021/09/01 05:20:25;;;;;;;8.35;5.10;;;;;;;13.41;97.27;93368.84;5070547;28;20094;-79
2021/09/01 05:22:59;;;;;;;6.47;5.00;;;;;;;13.54;97.08;93376.41;5070551;28;20512;-79
2021/09/01 05:25:29;;;;;;;13.82;7.05;;;;;;;13.66;96.60;93368.66;5070399;28;20425;-79
2021/09/01 05:27:57;;;;;;;7.28;5.15;;;;;;;13.69;96.65;93365.63;5070148;28;20234;-80
2021/09/01 05:30:24;;;;;;;9.80;5.47;;;;;;;13.68;96.43;93353.75;5070054;28;20040;-80
2021/09/01 05:32:54;;;;;;;14.27;6.90;;;;;;;13.78;97.09;93358.34;5070313;28;20044;-80
2021/09/01 05:35:20;;;;;;;12.43;6.18;;;;;;;13.99;98.39;93369.88;5069832;28;20505;-80
2021/09/01 05:37:47;;;;;;;11.07;7.30;;;;;;;14.09;96.32;93369.31;5070017;28;20060;-79
2021/09/01 05:40:14;;;;;;;13.20;7.40;;;;;;;14.17;96.94;93360.44;5069606;28;20560;-80
2021/09/01 05:42:41;;;;;;;11.40;7.15;;;;;;;14.18;96.64;93332.78;5070177;28;20054;-80
2021/09/01 05:45:10;;;;;;;11.88;7.78;;;;;;;14.33;97.80;93332.28;5069716;28;20051;-80
2021/09/01 05:47:37;;;;;;;13.07;7.65;;;;;;;14.60;97.20;93357.59;5069795;28;20056;-80
2021/09/01 05:50:06;;;;;;;15.57;8.77;;;;;;;14.71;96.90;93333.50;5069704;28;20055;-80
2021/09/01 05:52:33;;;;;;;12.20;7.15;;;;;;;15.06;94.38;93373.16;5069449;28;20059;-81
2021/09/01 05:55:04;;;;;;;9.18;6.18;;;;;;;15.17;93.27;93353.41;5069997;28;20041;-81
2021/09/01 05:57:35;;;;;;;8.48;6.10;;;;;;;15.54;93.13;93368.47;5069759;28;20094;-80
2021/09/01 06:00:08;;;;;;;9.30;7.60;;;;;;;15.76;91.82;93354.81;5068973;28;20075;-80
2021/09/01 06:02:41;;;;;;;9.57;7.30;;;;;;;16.06;91.41;93374.41;5069608;28;20098;-80
2021/09/01 06:05:09;;;;;;;4.63;3.85;;;;;;;16.19;86.53;93357.72;5069275;28;20047;-80
2021/09/01 06:07:44;;;;;;;4.10;2.92;;;;;;;16.52;86.31;93370.81;5069359;28;20079;-81
2021/09/01 06:10:15;;;;;;;3.63;3.10;;;;;;;16.67;80.12;93346.84;5069268;28;20519;-81
2021/09/01 06:12:47;;;;;;;3.20;2.40;;;;;;;16.90;74.12;93332.78;5069482;28;20304;-80
2021/09/01 06:15:13;;;;;;;4.60;2.95;;;;;;;17.42;75.47;93376.59;5068926;28;20090;-80
2021/09/01 06:17:42;;;;;;;4.30;3.22;;;;;;;17.77;73.87;93385.66;5069448;28;20045;-81
2021/09/01 06:20:10;;;;;;;4.90;2.58;;;;;;;18.05;70.83;93368.16;5068979;28;20052;-81
2021/09/01 06:22:36;;;;;;;3.38;2.10;;;;;;;18.26;68.43;93370.91;5068590;28;20551;-81
2021/09/01 06:25:04;;;;;;;7.63;2.47;;;;;;;18.13;68.92;93367.72;5068752;28;20052;-80
2021/09/01 06:27:31;;;;;;;8.73;3.10;;;;;;;18.20;70.46;93380.50;5069332;28;20106;-80
2021/09/01 06:29:57;;;;;;;4.93;2.60;;;;;;;18.47;67.56;93350.19;5069400;28;20052;-80
2021/09/01 06:32:24;;;;;;;8.32;2.88;;;;;;;19.06;68.56;93371.66;5069020;28;20485;-80
2021/09/01 06:34:52;;;;;;;5.85;2.45;;;;;;;18.54;67.17;93372.31;5069405;28;20075;-81
2021/09/01 06:37:19;;;;;;;8.65;2.78;;;;;;;18.09;69.89;93345.09;5069258;28;20053;-80
2021/09/01 06:39:46;;;;;;;6.32;2.83;;;;;;;18.38;68.31;93355.09;5069301;28;20109;-80
2021/09/01 06:42:13;;;;;;;9.70;3.00;;;;;;;18.39;67.22;93380.06;5068828;28;20516;-81
2021/09/01 06:44:40;;;;;;;8.27;2.83;;;;;;;18.72;68.74;93378.09;5069218;28;20127;-81
2021/09/01 06:47:07;;;;;;;4.10;2.70;;;;;;;19.05;67.30;93378.72;5068995;28;20048;-80
2021/09/01 06:49:33;;;;;;;4.15;2.30;;;;;;;18.79;65.33;93378.63;5069031;28;20123;-81
2021/09/01 06:52:02;;;;;;;3.38;1.88;;;;;;;18.87;63.79;93392.16;5068915;28;20493;-81
2021/09/01 06:54:28;;;;;;;3.17;1.85;;;;;;;19.02;64.73;93389.59;5069143;28;20094;-81
2021/09/01 06:56:55;;;;;;;4.75;2.38;;;;;;;19.02;63.06;93387.00;5068987;28;20055;-80
2021/09/01 06:59:22;;;;;;;3.25;2.33;;;;;;;18.72;64.26;93367.69;5069037;28;20413;-80
2021/09/01 07:01:49;;;;;;;14.15;2.67;;;;;;;18.84;64.36;93393.47;5069128;28;20048;-81
2021/09/01 07:04:16;;;;;;;5.38;2.40;;;;;;;18.89;63.94;93393.47;5068782;28;20067;-81
2021/09/01 07:06:42;;;;;;;5.35;2.20;;;;;;;18.48;65.11;93391.53;5068911;28;20059;-81
2021/09/01 07:09:11;;;;;;;4.65;2.05;;;;;;;18.49;64.19;93394.91;5068814;28;20049;-81
2021/09/01 07:11:38;;;;;;;4.60;2.13;;;;;;;18.38;65.24;93376.66;5072660;28;20132;-80
2021/09/01 07:14:06;;;;;;;4.93;2.10;;;;;;;18.63;64.26;93390.03;5073082;28;20048;-80
2021/09/01 07:16:33;;;;;;;3.67;2.30;;;;;;;18.54;64.92;93356.72;5073065;28;20125;-80
2021/09/01 07:19:00;;;;;;;4.55;1.92;;;;;;;19.14;63.62;93376.38;5072608;28;20055;-79
2021/09/01 07:21:26;;;;;;;4.95;2.28;;;;;;;19.09;63.33;93348.53;5072853;28;20467;-79
2021/09/01 07:23:54;;;;;;;4.90;2.05;;;;;;;19.01;61.36;93377.63;5072433;28;20575;-80
2021/09/01 07:26:22;;;;;;;5.93;2.10;;;;;;;19.36;62.67;93370.91;5073003;28;20144;-80
2021/09/01 07:28:49;;;;;;;6.32;2.03;;;;;;;19.53;61.25;93364.66;5072845;28;20117;-80
2021/09/01 07:31:16;;;;;;;3.38;1.90;;;;;;;19.85;62.77;93368.78;5072315;28;20056;-81
2021/09/01 07:33:43;;;;;;;2.90;1.60;;;;;;;20.08;59.81;93360.72;5072384;28;20045;-81
2021/09/01 07:36:10;;;;;;;3.40;1.35;;;;;;;20.33;58.74;93356.44;5072635;28;20052;-81
2021/09/01 07:38:36;;;;;;;2.15;1.20;;;;;;;20.76;56.79;93377.66;5072552;28;20105;-82
2021/09/01 07:41:03;;;;;;;4.85;1.77;;;;;;;21.14;57.41;93373.78;5073088;28;20059;-80
2021/09/01 07:43:32;;;;;;;3.65;1.77;;;;;;;21.07;56.00;93374.13;5072776;28;20109;-82
2021/09/01 07:45:59;;;;;;;4.15;1.90;;;;;;;21.34;56.67;93375.50;5072644;28;20110;-81
2021/09/01 07:48:25;;;;;;;4.28;1.88;;;;;;;21.04;54.81;93345.91;5072735;28;20045;-82
2021/09/01 07:50:52;;;;;;;3.63;1.40;;;;;;;21.35;55.87;93371.84;5072497;28;20048;-81
2021/09/01 07:53:20;;;;;;;2.70;1.27;;;;;;;21.48;53.69;93352.13;5072401;28;20056;-82
2021/09/01 07:55:47;;;;;;;2.00;1.27;;;;;;;20.75;53.73;93339.56;5072090;28;20047;-82
2021/09/01 07:58:14;;;;;;;3.03;1.30;;;;;;;20.48;56.18;93319.84;5072355;28;20054;-82
2021/09/01 08:00:42;;;;;;;2.40;1.23;;;;;;;21.18;55.70;93378.22;5072163;28;20060;-82
2021/09/01 08:03:09;;;;;;;2.55;1.20;;;;;;;21.49;55.42;93383.19;5071998;28;20048;-81
2021/09/01 08:05:36;;;;;;;1.83;1.20;;;;;;;21.55;54.48;93383.16;5071652;28;20045;-82
2021/09/01 08:08:04;;;;;;;2.50;1.20;;;;;;;21.39;53.66;93385.13;5071788;28;20080;-82
2021/09/01 08:10:31;;;;;;;1.98;1.23;;;;;;;21.09;55.32;93380.63;5071796;28;20040;-82
2021/09/01 08:12:57;;;;;;;5.45;1.38;;;;;;;20.26;56.72;93360.13;5072001;28;20056;-82
2021/09/01 08:15:24;;;;;;;2.13;1.38;;;;;;;20.67;55.88;93381.88;5072285;28;20056;-81
2021/09/01 08:17:53;;;;;;;2.17;1.30;;;;;;;20.75;57.00;93378.72;5071675;28;20044;-82
2021/09/01 08:20:20;;;;;;;2.75;1.48;;;;;;;20.91;56.43;93384.66;5071737;28;20048;-83
2021/09/01 08:22:48;;;;;;;4.80;1.50;;;;;;;21.20;54.37;93376.09;5070760;28;20049;-82
2021/09/01 08:25:16;;;;;;;2.72;1.58;;;;;;;21.13;54.93;93365.19;5071194;28;20055;-83
2021/09/01 08:27:46;;;;;;;3.63;1.20;;;;;;;21.08;54.84;93368.63;5071406;28;20055;-81
2021/09/01 08:30:14;;;;;;;2.60;1.33;;;;;;;21.25;55.06;93380.53;5059977;28;20054;-81
2021/09/01 08:32:41;;;;;;;2.60;1.23;;;;;;;21.15;54.12;93368.31;5091470;28;20516;-83
2021/09/01 08:35:10;;;;;;;4.43;1.55;;;;;;;21.25;54.19;93320.44;5091726;28;20051;-83
2021/09/01 08:37:37;;;;;;;2.70;1.50;;;;;;;20.69;54.84;93358.91;5091301;28;20047;-82
2021/09/01 08:40:06;;;;;;;3.70;1.55;;;;;;;20.83;54.44;93359.84;5091183;28;20493;-82
2021/09/01 08:42:34;;;;;;;2.85;1.40;;;;;;;20.22;57.17;93373.97;5091467;28;20126;-81
2021/09/01 08:45:01;;;;;;;15.20;2.20;;;;;;;20.32;56.83;93366.09;5091332;28;20059;-82
2021/09/01 08:47:28;;;;;;;4.60;1.80;;;;;;;20.31;58.12;93363.75;5091406;28;20523;-82
2021/09/01 08:49:55;;;;;;;4.20;1.38;;;;;;;19.68;58.74;93363.09;5091276;28;20056;-81
2021/09/01 08:52:23;;;;;;;3.92;1.63;;;;;;;20.01;58.91;93353.91;5091537;28;20040;-81
2021/09/01 08:54:50;;;;;;;6.13;1.80;;;;;;;20.36;59.33;93351.47;5091076;28;20044;-81
2021/09/01 08:57:17;;;;;;;4.18;1.98;;;;;;;20.42;57.71;93342.56;5091492;28;20047;-81
2021/09/01 08:59:44;;;;;;;3.20;2.05;;;;;;;20.56;55.96;93327.09;5091115;28;20044;-82
2021/09/01 09:02:12;;;;;;;2.35;1.20;;;;;;;20.62;55.06;93351.34;5090881;28;20496;-83
2021/09/01 09:04:39;;;;;;;3.75;1.67;;;;;;;20.86;56.02;93347.31;5091041;28;20052;-82
2021/09/01 09:07:08;;;;;;;2.42;1.40;;;;;;;21.27;52.08;93348.88;5090901;28;20047;-82
2021/09/01 09:09:38;;;;;;;2.80;1.17;;;;;;;21.70;51.18;93338.63;5090609;28;20048;-84
2021/09/01 09:12:08;;;;;;;1.92;1.17;;;;;;;21.65;48.20;93291.59;5091148;28;20439;-86
2021/09/01 09:14:37;;;;;;;3.35;1.33;;;;;;;22.36;48.72;93338.19;5090759;28;20052;-85
2021/09/01 09:17:07;;;;;;;3.72;1.50;;;;;;;21.54;48.51;93324.91;5090645;28;20048;-82
2021/09/01 09:19:53;;;;;;;4.20;2.15;;;;;;;21.93;50.24;93312.78;5090566;28;20051;-84
2021/09/01 09:22:21;;;;;;;;;;;;;;;22.40;48.01;93333.94;5090538;28;20044;-82
2021/09/01 09:25:14;;;;;;;2.55;1.80;;;;;;;22.28;46.24;93313.41;5090448;28;20372;-82
2021/09/01 09:27:45;;;;;;;5.38;1.98;;;;;;;22.67;48.56;93326.56;5071393;28;20086;-82
2021/09/01 09:30:26;;;;;;;4.50;2.08;;;;;;;22.82;47.80;93308.03;5090353;28;20052;-82
2021/09/01 09:32:55;;;;;;;3.97;2.20;;;;;;;22.79;48.33;93286.88;5090498;28;20453;-82
2021/09/01 09:35:23;;;;;;;3.53;1.88;;;;;;;22.85;46.55;93327.66;5086886;28;20459;-83
2021/09/01 09:38:01;;;;;;;4.85;2.03;;;;;;;23.06;48.68;93314.25;5089115;28;20109;-82
2021/09/01 09:40:30;;;;;;;3.72;2.20;;;;;;;22.42;47.24;93318.75;5089058;28;20055;-83
2021/09/01 09:42:57;;;;;;;3.05;2.72;;;;;;;22.60;49.74;93306.00;5090479;28;20058;-82
2021/09/01 09:45:27;;;;;;;5.10;2.05;;;;;;;22.95;47.63;93314.41;5090018;28;20515;-82
2021/09/01 09:47:56;;;;;;;2.60;1.88;;;;;;;22.61;48.35;93317.22;5089987;28;20493;-83
2021/09/01 09:50:23;;;;;;;2.67;1.90;;;;;;;22.87;48.81;93312.41;5090259;28;20454;-82
2021/09/01 09:52:50;;;;;;;5.28;2.20;;;;;;;22.14;49.93;93281.16;5090075;28;20048;-82
2021/09/01 09:55:19;;;;;;;2.13;1.70;;;;;;;21.74;50.58;93312.72;5089922;28;20044;-83
2021/09/01 09:57:55;;;;;;;2.88;1.63;;;;;;;21.34;51.96;93312.78;5089848;28;20519;-81
2021/09/01 10:00:24;;;;;;;6.00;2.20;;;;;;;20.89;53.80;93307.63;5089972;28;20052;-81
2021/09/01 10:02:51;;;;;;;3.45;2.20;;;;;;;20.99;55.51;93301.56;5089564;28;20059;-81
2021/09/01 10:05:20;;;;;;;3.65;2.03;;;;;;;20.60;57.58;93305.69;5086898;28;20047;-80
2021/09/01 10:07:47;;;;;;;4.18;2.30;;;;;;;20.35;59.13;93308.16;5089705;28;20054;-81
2021/09/01 10:10:15;;;;;;;5.65;2.20;;;;;;;20.11;59.71;93290.53;5089433;28;20044;-82
2021/09/01 10:12:44;;;;;;;3.72;2.20;;;;;;;20.33;59.33;93309.50;5089492;28;20109;-82
2021/09/01 10:15:16;;;;;;;3.85;2.00;;;;;;;20.81;57.28;93301.91;5086542;28;20055;-82
2021/09/01 10:17:45;;;;;;;3.15;1.85;;;;;;;21.09;54.83;93301.47;5089372;28;20039;-82
2021/09/01 10:20:20;;;;;;;2.92;1.77;;;;;;;21.33;54.66;93292.94;5088859;28;20623;-82
2021/09/01 10:22:59;;;;;;;3.50;1.98;;;;;;;21.11;52.95;93288.16;5089171;28;20044;-82
2021/09/01 10:25:34;;;;;;;3.55;1.85;;;;;;;21.46;53.33;93318.44;5088551;28;20101;-81
2021/09/01 10:28:34;;;;;;;3.55;2.38;;;;;;;21.81;53.08;93297.50;5087370;28;20467;-83
2021/09/01 10:31:31;;;;;;;7.63;2.20;;;;;;;21.88;52.98;93337.16;5077971;28;20129;-81
2021/09/01 10:34:04;;;;;;;3.95;2.40;;;;;;;21.87;51.91;93303.44;5089797;28;20505;-83
2021/09/01 10:36:57;;;;;;;3.53;2.08;;;;;;;21.91;52.29;93332.41;5090004;28;20051;-82
2021/09/01 10:39:45;;;;;;;3.42;1.80;;;;;;;21.17;55.02;93316.59;5086865;28;20345;-83
2021/09/01 10:42:37;;;;;;;3.72;1.95;;;;;;;21.54;54.94;93287.53;5089385;28;20048;-82
2021/09/01 10:45:12;;;;;;;6.15;2.35;;;;;;;21.85;51.48;93331.69;5083237;28;20131;-84
2021/09/01 10:48:04;;;;;;;3.95;2.22;;;;;;;21.43;52.96;93342.50;5089392;28;20058;-84
2021/09/01 10:50:32;;;;;;;3.20;2.22;;;;;;;21.30;53.96;93309.16;5089380;28;20056;-81
2021/09/01 10:53:02;;;;;;;4.03;2.10;;;;;;;20.91;56.10;93349.91;5088995;28;20059;-83
2021/09/01 10:55:29;;;;;;;2.70;1.90;;;;;;;20.60;55.01;93343.00;5089193;28;20052;-83
2021/09/01 10:58:22;;;;;;;5.55;2.00;;;;;;;20.94;53.06;93355.41;5089194;28;20044;-80
2021/09/01 11:00:57;;;;;;;3.10;1.92;;;;;;;21.26;52.37;93357.78;5069634;28;20051;-83
2021/09/01 11:03:30;;;;;;;2.55;1.77;;;;;;;21.02;51.44;93354.00;5088994;28;20048;-84
2021/09/01 11:05:57;;;;;;;3.90;1.90;;;;;;;20.62;51.99;93267.06;5088865;28;20044;-83
2021/09/01 11:08:24;;;;;;;3.22;1.92;;;;;;;20.77;51.04;93347.09;5084300;28;20048;-82
2021/09/01 11:10:57;;;;;;;4.00;1.90;;;;;;;20.48;51.99;93359.00;5087061;28;20134;-82
2021/09/01 11:13:39;;;;;;;2.10;1.48;;;;;;;20.26;52.57;93341.06;5089049;28;20423;-84
2021/09/01 11:19:06;;;;;;;5.85;2.20;;;;;;;20.32;54.13;93342.59;5088828;28;20527;-82
2021/09/01 11:21:34;;;;;;;4.45;1.92;;;;;;;20.67;52.89;93351.34;5088513;28;20056;-82
2021/09/01 11:24:02;;;;;;;3.40;1.70;;;;;;;20.99;52.97;93351.16;5088762;28;20056;-82
2021/09/01 11:26:31;;;;;;;3.28;1.73;;;;;;;21.31;52.08;93340.25;5088734;28;20055;-83
2021/09/01 11:28:59;;;;;;;2.78;1.27;;;;;;;20.75;52.05;93342.16;5089070;28;20052;-81
2021/09/01 11:31:26;;;;;;;3.95;1.80;;;;;;;20.76;52.08;93329.88;5089254;28;20408;-82
2021/09/01 11:33:57;;;;;;;2.70;1.55;;;;;;;20.87;52.75;93349.66;5088755;28;20051;-82
2021/09/01 11:36:31;;;;;;;2.53;1.73;;;;;;;20.89;51.73;93344.97;5088460;28;20657;-80
2021/09/01 11:38:59;;;;;;;5.10;1.95;;;;;;;20.78;50.83;93224.13;5088195;28;20080;-82
2021/09/01 11:41:28;;;;;;;2.30;1.73;;;;;;;21.85;49.78;93329.09;5088336;28;20519;-82